sensor_id;sensor_type;location;lat;lon;timestamp;temperature;humidity
8463;DHT22;4268;52.506;13.462;2023-03-01T00:00:11;0.60;99.90
8463;DHT22;4268;52.506;13.462;2023-03-01T00:02:37;0.60;99.90
8463;DHT22;4268;52.506;13.462;2023-03-01T00:05:03;0.50;99.90
8463;DHT22;4268;52.506;13.462;2023-03-01T00:07:29;0.50;99.90
8463;DHT22;4268;52.506;13.462;2023-03-01T00:09:55;0.50;99.90
8463;DHT22;4268;52.506;13.462;2023-03-01T00:12:20;0.50;99.90
8463;DHT22;4268;52.506;13.462;2023-03-01T00:14:45;0.50;99.90
8463;DHT22;4268;52.506;13.462;2023-03-01T00:17:11;0.50;99.90
8463;DHT22;4268;52.506;13.462;2023-03-01T00:19:37;0.40;99.90
8463;DHT22;4268;52.506;13.462;2023-03-01T00:22:02;0.40;99.90
8463;DHT22;4268;52.506;13.462;2023-03-01T00:24:28;0.50;99.90
8463;DHT22;4268;52.506;13.462;2023-03-01T00:26:54;0.50;99.90
8463;DHT22;4268;52.506;13.462;2023-03-01T00:29:22;0.70;99.90
8463;DHT22;4268;52.506;13.462;2023-03-01T00:31:48;0.50;99.90
8463;DHT22;4268;52.506;13.462;2023-03-01T00:34:13;0.50;99.90
8463;DHT22;4268;52.506;13.462;2023-03-01T00:36:38;0.50;99.90
8463;DHT22;4268;52.506;13.462;2023-03-01T00:39:09;0.50;99.90
8463;DHT22;4268;52.506;13.462;2023-03-01T00:41:35;0.40;99.90
8463;DHT22;4268;52.506;13.462;2023-03-01T00:44:00;0.40;99.90
8463;DHT22;4268;52.506;13.462;2023-03-01T00:46:27;0.40;99.90
8463;DHT22;4268;52.506;13.462;2023-03-01T00:48:53;0.30;99.90
8463;DHT22;4268;52.506;13.462;2023-03-01T00:51:24;0.30;99.90
8463;DHT22;4268;52.506;13.462;2023-03-01T00:53:52;0.30;99.90
8463;DHT22;4268;52.506;13.462;2023-03-01T00:56:18;0.30;99.90
8463;DHT22;4268;52.506;13.462;2023-03-01T00:58:44;0.30;99.90
8463;DHT22;4268;52.506;13.462;2023-03-01T01:03:39;0.30;99.90
8463;DHT22;4268;52.506;13.462;2023-03-01T01:06:05;0.30;99.90
8463;DHT22;4268;52.506;13.462;2023-03-01T01:08:34;0.20;99.90
8463;DHT22;4268;52.506;13.462;2023-03-01T01:11:00;0.30;99.90
8463;DHT22;4268;52.506;13.462;2023-03-01T01:13:25;0.90;99.90
8463;DHT22;4268;52.506;13.462;2023-03-01T01:15:50;-0.40;99.90
8463;DHT22;4268;52.506;13.462;2023-03-01T01:18:21;0.30;99.90
8463;DHT22;4268;52.506;13.462;2023-03-01T01:20:46;0.30;99.90
8463;DHT22;4268;52.506;13.462;2023-03-01T01:23:12;0.20;99.90
8463;DHT22;4268;52.506;13.462;2023-03-01T01:25:37;0.20;99.90
8463;DHT22;4268;52.506;13.462;2023-03-01T01:28:03;0.30;99.90
8463;DHT22;4268;52.506;13.462;2023-03-01T01:30:28;0.20;99.90
8463;DHT22;4268;52.506;13.462;2023-03-01T01:32:54;0.30;99.90
8463;DHT22;4268;52.506;13.462;2023-03-01T01:35:20;0.20;99.90
8463;DHT22;4268;52.506;13.462;2023-03-01T01:37:45;0.00;99.90
8463;DHT22;4268;52.506;13.462;2023-03-01T01:40:11;0.10;99.90
8463;DHT22;4268;52.506;13.462;2023-03-01T01:42:37;0.20;99.90
8463;DHT22;4268;52.506;13.462;2023-03-01T01:45:29;0.20;99.90
8463;DHT22;4268;52.506;13.462;2023-03-01T01:48:00;0.20;99.90
8463;DHT22;4268;52.506;13.462;2023-03-01T01:50:26;0.20;99.90
8463;DHT22;4268;52.506;13.462;2023-03-01T01:52:53;0.30;99.90
8463;DHT22;4268;52.506;13.462;2023-03-01T01:55:23;0.10;99.90
8463;DHT22;4268;52.506;13.462;2023-03-01T01:57:54;0.10;99.90
8463;DHT22;4268;52.506;13.462;2023-03-01T02:00:27;0.10;99.90
8463;DHT22;4268;52.506;13.462;2023-03-01T02:03:11;0.10;99.90
8463;DHT22;4268;52.506;13.462;2023-03-01T02:05:53;0.10;99.90
8463;DHT22;4268;52.506;13.462;2023-03-01T02:08:25;0.00;99.90
8463;DHT22;4268;52.506;13.462;2023-03-01T02:10:53;0.00;99.90
8463;DHT22;4268;52.506;13.462;2023-03-01T02:13:19;0.00;99.90
8463;DHT22;4268;52.506;13.462;2023-03-01T02:15:45;0.00;99.90
8463;DHT22;4268;52.506;13.462;2023-03-01T02:18:14;-0.10;99.90
8463;DHT22;4268;52.506;13.462;2023-03-01T02:23:23;-0.10;99.90
8463;DHT22;4268;52.506;13.462;2023-03-01T02:26:09;-0.10;99.90
8463;DHT22;4268;52.506;13.462;2023-03-01T02:28:38;-0.10;99.90
8463;DHT22;4268;52.506;13.462;2023-03-01T02:31:07;0.00;99.90
8463;DHT22;4268;52.506;13.462;2023-03-01T02:33:53;0.00;99.90
8463;DHT22;4268;52.506;13.462;2023-03-01T02:36:24;-0.20;99.90
8463;DHT22;4268;52.506;13.462;2023-03-01T02:38:54;-0.10;99.90
8463;DHT22;4268;52.506;13.462;2023-03-01T02:41:21;-0.10;99.90
8463;DHT22;4268;52.506;13.462;2023-03-01T02:43:47;-0.20;99.90
8463;DHT22;4268;52.506;13.462;2023-03-01T02:46:20;-0.20;99.90
8463;DHT22;4268;52.506;13.462;2023-03-01T02:48:51;-0.20;99.90
8463;DHT22;4268;52.506;13.462;2023-03-01T02:51:38;-0.30;99.90
8463;DHT22;4268;52.506;13.462;2023-03-01T02:54:10;-0.30;99.90
8463;DHT22;4268;52.506;13.462;2023-03-01T02:56:37;-0.30;99.90
8463;DHT22;4268;52.506;13.462;2023-03-01T02:59:03;-0.30;99.90
8463;DHT22;4268;52.506;13.462;2023-03-01T03:01:29;-0.30;99.90
8463;DHT22;4268;52.506;13.462;2023-03-01T03:04:03;-0.30;99.90
8463;DHT22;4268;52.506;13.462;2023-03-01T03:06:29;-0.40;99.90
8463;DHT22;4268;52.506;13.462;2023-03-01T03:08:55;-0.40;99.90
8463;DHT22;4268;52.506;13.462;2023-03-01T03:11:20;-0.40;99.90
8463;DHT22;4268;52.506;13.462;2023-03-01T03:13:46;-0.40;99.90
8463;DHT22;4268;52.506;13.462;2023-03-01T03:16:14;-0.50;99.90
8463;DHT22;4268;52.506;13.462;2023-03-01T03:18:39;-0.90;99.90
8463;DHT22;4268;52.506;13.462;2023-03-01T03:21:08;-0.50;99.90
8463;DHT22;4268;52.506;13.462;2023-03-01T03:23:36;-0.40;99.90
8463;DHT22;4268;52.506;13.462;2023-03-01T03:26:03;-0.90;99.90
8463;DHT22;4268;52.506;13.462;2023-03-01T03:28:32;0.70;99.90
8463;DHT22;4268;52.506;13.462;2023-03-01T03:30:58;0.70;99.90
8463;DHT22;4268;52.506;13.462;2023-03-01T03:33:29;-0.50;99.90
8463;DHT22;4268;52.506;13.462;2023-03-01T03:35:55;-1.30;99.90
8463;DHT22;4268;52.506;13.462;2023-03-01T03:38:20;-0.60;99.90
8463;DHT22;4268;52.506;13.462;2023-03-01T03:40:58;-1.20;99.90
8463;DHT22;4268;52.506;13.462;2023-03-01T03:43:27;-0.70;99.90
8463;DHT22;4268;52.506;13.462;2023-03-01T03:45:53;-0.80;99.90
8463;DHT22;4268;52.506;13.462;2023-03-01T03:48:19;-0.70;99.90
8463;DHT22;4268;52.506;13.462;2023-03-01T03:50:50;-0.80;99.90
8463;DHT22;4268;52.506;13.462;2023-03-01T03:53:16;-0.70;99.90
8463;DHT22;4268;52.506;13.462;2023-03-01T03:55:42;-0.80;99.90
8463;DHT22;4268;52.506;13.462;2023-03-01T03:58:10;-0.90;99.90
8463;DHT22;4268;52.506;13.462;2023-03-01T04:00:39;-0.80;99.90
8463;DHT22;4268;52.506;13.462;2023-03-01T04:03:05;-0.80;99.90
8463;DHT22;4268;52.506;13.462;2023-03-01T04:05:30;-2.30;99.90
8463;DHT22;4268;52.506;13.462;2023-03-01T04:07:57;-0.90;99.90
8463;DHT22;4268;52.506;13.462;2023-03-01T04:10:37;-0.90;99.90
8463;DHT22;4268;52.506;13.462;2023-03-01T04:13:03;-1.20;99.90
8463;DHT22;4268;52.506;13.462;2023-03-01T04:15:30;-1.00;99.90
8463;DHT22;4268;52.506;13.462;2023-03-01T04:17:55;-1.60;99.90
8463;DHT22;4268;52.506;13.462;2023-03-01T04:20:27;-1.00;99.90
8463;DHT22;4268;52.506;13.462;2023-03-01T04:23:08;-0.90;99.90
8463;DHT22;4268;52.506;13.462;2023-03-01T04:25:56;-1.60;99.90
8463;DHT22;4268;52.506;13.462;2023-03-01T04:28:34;-1.00;99.90
8463;DHT22;4268;52.506;13.462;2023-03-01T04:31:04;-1.00;99.90
8463;DHT22;4268;52.506;13.462;2023-03-01T04:33:47;-1.00;99.90
8463;DHT22;4268;52.506;13.462;2023-03-01T04:36:15;-1.30;99.90
8463;DHT22;4268;52.506;13.462;2023-03-01T04:38:41;-1.00;99.90
8463;DHT22;4268;52.506;13.462;2023-03-01T04:41:09;-1.20;99.90
8463;DHT22;4268;52.506;13.462;2023-03-01T04:43:35;-1.10;99.90
8463;DHT22;4268;52.506;13.462;2023-03-01T04:46:09;-1.10;99.90
8463;DHT22;4268;52.506;13.462;2023-03-01T04:48:37;-1.10;99.90
8463;DHT22;4268;52.506;13.462;2023-03-01T04:51:03;-1.50;99.90
8463;DHT22;4268;52.506;13.462;2023-03-01T04:53:29;-1.10;99.90
8463;DHT22;4268;52.506;13.462;2023-03-01T04:55:55;-1.10;99.90
8463;DHT22;4268;52.506;13.462;2023-03-01T04:58:25;-1.30;99.90
8463;DHT22;4268;52.506;13.462;2023-03-01T05:00:52;-1.60;99.90
8463;DHT22;4268;52.506;13.462;2023-03-01T05:03:17;-1.20;99.90
8463;DHT22;4268;52.506;13.462;2023-03-01T05:05:44;-1.40;99.90
8463;DHT22;4268;52.506;13.462;2023-03-01T05:08:10;0.70;99.90
8463;DHT22;4268;52.506;13.462;2023-03-01T05:10:50;-1.10;99.90
8463;DHT22;4268;52.506;13.462;2023-03-01T05:13:17;-1.10;99.90
8463;DHT22;4268;52.506;13.462;2023-03-01T05:15:48;-1.20;99.90
8463;DHT22;4268;52.506;13.462;2023-03-01T05:18:14;-1.30;99.90
8463;DHT22;4268;52.506;13.462;2023-03-01T05:20:39;-1.30;99.90
8463;DHT22;4268;52.506;13.462;2023-03-01T05:23:05;-2.50;99.90
8463;DHT22;4268;52.506;13.462;2023-03-01T05:25:33;-1.40;99.90
8463;DHT22;4268;52.506;13.462;2023-03-01T05:28:00;-2.20;99.90
8463;DHT22;4268;52.506;13.462;2023-03-01T05:30:30;-1.30;99.90
8463;DHT22;4268;52.506;13.462;2023-03-01T05:32:55;-1.20;99.90
8463;DHT22;4268;52.506;13.462;2023-03-01T05:35:21;-1.30;99.90
8463;DHT22;4268;52.506;13.462;2023-03-01T05:37:48;-1.30;99.90
8463;DHT22;4268;52.506;13.462;2023-03-01T05:40:19;-1.40;99.90
8463;DHT22;4268;52.506;13.462;2023-03-01T05:43:03;-1.30;99.90
8463;DHT22;4268;52.506;13.462;2023-03-01T05:45:30;-1.30;99.90
8463;DHT22;4268;52.506;13.462;2023-03-01T05:47:57;-1.50;99.90
8463;DHT22;4268;52.506;13.462;2023-03-01T05:50:26;-1.30;99.90
8463;DHT22;4268;52.506;13.462;2023-03-01T05:53:18;-1.30;99.90
8463;DHT22;4268;52.506;13.462;2023-03-01T05:55:42;-1.30;99.90
8463;DHT22;4268;52.506;13.462;2023-03-01T05:58:14;-1.80;99.90
8463;DHT22;4268;52.506;13.462;2023-03-01T06:00:40;-1.30;99.90
8463;DHT22;4268;52.506;13.462;2023-03-01T06:03:06;-1.20;99.90
8463;DHT22;4268;52.506;13.462;2023-03-01T06:05:31;-1.50;99.90
8463;DHT22;4268;52.506;13.462;2023-03-01T06:08:00;-1.30;99.90
8463;DHT22;4268;52.506;13.462;2023-03-01T06:10:26;-1.10;99.90
8463;DHT22;4268;52.506;13.462;2023-03-01T06:12:52;-1.00;99.90
8463;DHT22;4268;52.506;13.462;2023-03-01T06:15:19;-1.00;99.90
8463;DHT22;4268;52.506;13.462;2023-03-01T06:17:46;-1.00;99.90
8463;DHT22;4268;52.506;13.462;2023-03-01T06:20:17;-0.20;99.90
8463;DHT22;4268;52.506;13.462;2023-03-01T06:22:43;-0.80;99.90
8463;DHT22;4268;52.506;13.462;2023-03-01T06:25:09;-0.90;99.90
8463;DHT22;4268;52.506;13.462;2023-03-01T06:27:35;-1.20;99.90
8463;DHT22;4268;52.506;13.462;2023-03-01T06:30:01;-0.70;99.90
8463;DHT22;4268;52.506;13.462;2023-03-01T06:32:27;0.80;99.90
8463;DHT22;4268;52.506;13.462;2023-03-01T06:34:52;-0.70;99.90
8463;DHT22;4268;52.506;13.462;2023-03-01T06:37:18;-0.70;99.90
8463;DHT22;4268;52.506;13.462;2023-03-01T06:39:43;-0.50;99.90
8463;DHT22;4268;52.506;13.462;2023-03-01T06:42:09;-0.50;99.90
8463;DHT22;4268;52.506;13.462;2023-03-01T06:44:35;-0.30;99.90
8463;DHT22;4268;52.506;13.462;2023-03-01T06:47:01;1.20;99.90
8463;DHT22;4268;52.506;13.462;2023-03-01T06:49:27;-0.20;99.90
8463;DHT22;4268;52.506;13.462;2023-03-01T06:51:52;2.30;99.90
8463;DHT22;4268;52.506;13.462;2023-03-01T06:54:18;0.00;99.90
8463;DHT22;4268;52.506;13.462;2023-03-01T06:56:49;0.10;99.90
8463;DHT22;4268;52.506;13.462;2023-03-01T06:59:15;-0.80;99.90
8463;DHT22;4268;52.506;13.462;2023-03-01T07:01:44;0.80;99.90
8463;DHT22;4268;52.506;13.462;2023-03-01T07:04:11;1.00;99.90
8463;DHT22;4268;52.506;13.462;2023-03-01T07:06:37;2.10;99.90
8463;DHT22;4268;52.506;13.462;2023-03-01T07:09:03;4.10;99.90
8463;DHT22;4268;52.506;13.462;2023-03-01T07:11:28;5.80;99.90
8463;DHT22;4268;52.506;13.462;2023-03-01T07:13:54;6.50;99.90
8463;DHT22;4268;52.506;13.462;2023-03-01T07:16:20;9.20;97.40
8463;DHT22;4268;52.506;13.462;2023-03-01T07:18:46;9.10;94.20
8463;DHT22;4268;52.506;13.462;2023-03-01T07:21:13;9.80;92.60
8463;DHT22;4268;52.506;13.462;2023-03-01T07:23:39;10.40;90.20
8463;DHT22;4268;52.506;13.462;2023-03-01T07:26:04;10.60;89.20
8463;DHT22;4268;52.506;13.462;2023-03-01T07:28:30;11.20;84.90
8463;DHT22;4268;52.506;13.462;2023-03-01T07:31:01;11.50;82.70
8463;DHT22;4268;52.506;13.462;2023-03-01T07:33:27;11.60;81.40
8463;DHT22;4268;52.506;13.462;2023-03-01T07:35:57;11.40;81.10
8463;DHT22;4268;52.506;13.462;2023-03-01T07:38:23;11.60;80.30
8463;DHT22;4268;52.506;13.462;2023-03-01T07:40:48;12.00;79.40
8463;DHT22;4268;52.506;13.462;2023-03-01T07:43:14;12.10;77.90
8463;DHT22;4268;52.506;13.462;2023-03-01T07:45:39;12.60;75.90
8463;DHT22;4268;52.506;13.462;2023-03-01T07:48:05;12.60;75.50
8463;DHT22;4268;52.506;13.462;2023-03-01T07:50:30;12.60;75.80
8463;DHT22;4268;52.506;13.462;2023-03-01T07:52:55;12.60;74.90
8463;DHT22;4268;52.506;13.462;2023-03-01T07:55:21;12.40;74.70
8463;DHT22;4268;52.506;13.462;2023-03-01T07:57:47;12.60;73.70
8463;DHT22;4268;52.506;13.462;2023-03-01T08:00:12;12.60;73.80
8463;DHT22;4268;52.506;13.462;2023-03-01T08:02:38;12.90;72.90
8463;DHT22;4268;52.506;13.462;2023-03-01T08:05:05;12.80;72.80
8463;DHT22;4268;52.506;13.462;2023-03-01T08:07:31;12.50;72.50
8463;DHT22;4268;52.506;13.462;2023-03-01T08:09:56;11.00;74.10
8463;DHT22;4268;52.506;13.462;2023-03-01T08:12:22;9.90;77.40
8463;DHT22;4268;52.506;13.462;2023-03-01T08:14:47;9.00;79.20
8463;DHT22;4268;52.506;13.462;2023-03-01T08:17:16;8.20;81.00
8463;DHT22;4268;52.506;13.462;2023-03-01T08:19:42;7.40;83.70
8463;DHT22;4268;52.506;13.462;2023-03-01T08:22:08;6.50;87.00
8463;DHT22;4268;52.506;13.462;2023-03-01T08:24:33;6.10;89.70
8463;DHT22;4268;52.506;13.462;2023-03-01T08:26:59;5.60;88.20
8463;DHT22;4268;52.506;13.462;2023-03-01T08:29:24;5.30;88.70
8463;DHT22;4268;52.506;13.462;2023-03-01T08:31:50;5.20;90.10
8463;DHT22;4268;52.506;13.462;2023-03-01T08:34:17;5.00;90.90
8463;DHT22;4268;52.506;13.462;2023-03-01T08:36:45;4.90;91.00
8463;DHT22;4268;52.506;13.462;2023-03-01T08:39:13;4.70;91.10
8463;DHT22;4268;52.506;13.462;2023-03-01T08:41:39;4.70;90.90
8463;DHT22;4268;52.506;13.462;2023-03-01T08:44:05;4.70;90.50
8463;DHT22;4268;52.506;13.462;2023-03-01T08:46:39;4.70;90.30
8463;DHT22;4268;52.506;13.462;2023-03-01T08:49:16;4.70;89.90
8463;DHT22;4268;52.506;13.462;2023-03-01T08:51:43;4.70;90.40
8463;DHT22;4268;52.506;13.462;2023-03-01T08:54:14;4.70;89.50
8463;DHT22;4268;52.506;13.462;2023-03-01T08:56:40;4.70;89.20
8463;DHT22;4268;52.506;13.462;2023-03-01T08:59:06;4.70;89.30
8463;DHT22;4268;52.506;13.462;2023-03-01T09:01:32;4.80;89.20
8463;DHT22;4268;52.506;13.462;2023-03-01T09:03:58;4.90;89.20
8463;DHT22;4268;52.506;13.462;2023-03-01T09:06:24;4.90;89.80
8463;DHT22;4268;52.506;13.462;2023-03-01T09:08:50;4.90;89.10
8463;DHT22;4268;52.506;13.462;2023-03-01T09:11:18;4.90;88.30
8463;DHT22;4268;52.506;13.462;2023-03-01T09:13:45;4.90;88.50
8463;DHT22;4268;52.506;13.462;2023-03-01T09:16:13;5.00;88.60
8463;DHT22;4268;52.506;13.462;2023-03-01T09:18:39;5.00;88.00
8463;DHT22;4268;52.506;13.462;2023-03-01T09:21:06;5.00;87.70
8463;DHT22;4268;52.506;13.462;2023-03-01T09:23:40;5.00;87.10
8463;DHT22;4268;52.506;13.462;2023-03-01T09:26:07;5.10;86.80
8463;DHT22;4268;52.506;13.462;2023-03-01T09:28:37;5.10;87.40
8463;DHT22;4268;52.506;13.462;2023-03-01T09:31:03;5.20;87.10
8463;DHT22;4268;52.506;13.462;2023-03-01T09:33:31;5.30;87.30
8463;DHT22;4268;52.506;13.462;2023-03-01T09:35:58;5.30;86.90
8463;DHT22;4268;52.506;13.462;2023-03-01T09:38:24;5.30;86.20
8463;DHT22;4268;52.506;13.462;2023-03-01T09:40:50;5.30;86.40
8463;DHT22;4268;52.506;13.462;2023-03-01T09:43:23;5.40;86.30
8463;DHT22;4268;52.506;13.462;2023-03-01T09:45:53;5.50;85.30
8463;DHT22;4268;52.506;13.462;2023-03-01T09:48:23;5.50;83.90
8463;DHT22;4268;52.506;13.462;2023-03-01T09:50:49;5.50;82.20
8463;DHT22;4268;52.506;13.462;2023-03-01T09:53:22;5.50;82.80
8463;DHT22;4268;52.506;13.462;2023-03-01T09:56:19;5.60;82.90
8463;DHT22;4268;52.506;13.462;2023-03-01T09:58:51;5.80;82.40
8463;DHT22;4268;52.506;13.462;2023-03-01T10:09:39;6.20;80.60
8463;DHT22;4268;52.506;13.462;2023-03-01T10:12:10;6.30;80.20
8463;DHT22;4268;52.506;13.462;2023-03-01T10:14:52;6.30;79.70
8463;DHT22;4268;52.506;13.462;2023-03-01T10:19:55;6.30;79.30
8463;DHT22;4268;52.506;13.462;2023-03-01T10:22:24;6.30;78.80
8463;DHT22;4268;52.506;13.462;2023-03-01T10:24:54;6.40;79.40
8463;DHT22;4268;52.506;13.462;2023-03-01T10:27:25;6.30;79.30
8463;DHT22;4268;52.506;13.462;2023-03-01T10:30:12;6.20;79.20
8463;DHT22;4268;52.506;13.462;2023-03-01T10:32:39;6.20;78.40
8463;DHT22;4268;52.506;13.462;2023-03-01T10:35:26;6.20;78.10
8463;DHT22;4268;52.506;13.462;2023-03-01T10:38:11;6.30;78.50
8463;DHT22;4268;52.506;13.462;2023-03-01T10:40:51;6.40;78.60
8463;DHT22;4268;52.506;13.462;2023-03-01T10:43:17;6.60;78.80
8463;DHT22;4268;52.506;13.462;2023-03-01T10:45:43;6.70;78.20
8463;DHT22;4268;52.506;13.462;2023-03-01T10:48:15;6.60;77.70
8463;DHT22;4268;52.506;13.462;2023-03-01T10:50:42;6.70;77.90
8463;DHT22;4268;52.506;13.462;2023-03-01T10:53:24;6.70;78.20
8463;DHT22;4268;52.506;13.462;2023-03-01T10:56:03;6.80;76.60
8463;DHT22;4268;52.506;13.462;2023-03-01T10:58:30;6.80;74.60
8463;DHT22;4268;52.506;13.462;2023-03-01T11:01:01;6.70;75.40
8463;DHT22;4268;52.506;13.462;2023-03-01T11:03:34;6.70;75.30
8463;DHT22;4268;52.506;13.462;2023-03-01T11:13:59;6.90;71.40
8463;DHT22;4268;52.506;13.462;2023-03-01T11:16:28;7.00;71.10
8463;DHT22;4268;52.506;13.462;2023-03-01T11:21:36;6.90;70.10
8463;DHT22;4268;52.506;13.462;2023-03-01T11:24:04;6.90;68.00
8463;DHT22;4268;52.506;13.462;2023-03-01T11:26:34;7.00;69.00
8463;DHT22;4268;52.506;13.462;2023-03-01T11:29:05;7.10;69.50
8463;DHT22;4268;52.506;13.462;2023-03-01T11:31:32;7.00;69.40
8463;DHT22;4268;52.506;13.462;2023-03-01T11:34:00;6.90;70.30
8463;DHT22;4268;52.506;13.462;2023-03-01T11:36:52;7.00;71.70
8463;DHT22;4268;52.506;13.462;2023-03-01T11:39:38;7.10;71.60
8463;DHT22;4268;52.506;13.462;2023-03-01T11:45:09;7.30;71.90
8463;DHT22;4268;52.506;13.462;2023-03-01T11:50:47;7.50;68.80
8463;DHT22;4268;52.506;13.462;2023-03-01T11:53:23;7.60;68.60
8463;DHT22;4268;52.506;13.462;2023-03-01T12:04:32;7.70;67.50
8463;DHT22;4268;52.506;13.462;2023-03-01T12:07:01;7.70;65.20
8463;DHT22;4268;52.506;13.462;2023-03-01T12:09:36;7.70;64.20
8463;DHT22;4268;52.506;13.462;2023-03-01T12:14:53;7.80;64.60
8463;DHT22;4268;52.506;13.462;2023-03-01T12:17:48;7.80;63.00
8463;DHT22;4268;52.506;13.462;2023-03-01T12:25:47;8.00;63.20
8463;DHT22;4268;52.506;13.462;2023-03-01T12:28:41;8.00;63.60
8463;DHT22;4268;52.506;13.462;2023-03-01T12:31:32;8.00;63.60
8463;DHT22;4268;52.506;13.462;2023-03-01T12:34:11;8.00;63.10
8463;DHT22;4268;52.506;13.462;2023-03-01T12:37:14;8.00;62.60
8463;DHT22;4268;52.506;13.462;2023-03-01T12:42:51;8.00;62.30
8463;DHT22;4268;52.506;13.462;2023-03-01T12:45:32;8.10;62.90
8463;DHT22;4268;52.506;13.462;2023-03-01T12:48:24;8.00;63.00
8463;DHT22;4268;52.506;13.462;2023-03-01T12:50:54;8.00;62.40
8463;DHT22;4268;52.506;13.462;2023-03-01T12:53:28;7.90;62.90
8463;DHT22;4268;52.506;13.462;2023-03-01T12:55:59;7.90;62.90
8463;DHT22;4268;52.506;13.462;2023-03-01T12:58:32;7.90;62.10
8463;DHT22;4268;52.506;13.462;2023-03-01T13:07:09;7.10;60.90
8463;DHT22;4268;52.506;13.462;2023-03-01T13:09:39;8.00;62.10
8463;DHT22;4268;52.506;13.462;2023-03-01T13:16:16;8.10;60.40
8463;DHT22;4268;52.506;13.462;2023-03-01T13:20:55;8.00;58.90
8463;DHT22;4268;52.506;13.462;2023-03-01T13:31:01;8.00;58.70
8463;DHT22;4268;52.506;13.462;2023-03-01T13:35:57;8.10;58.20
8463;DHT22;4268;52.506;13.462;2023-03-01T13:38:46;8.10;57.20
8463;DHT22;4268;52.506;13.462;2023-03-01T13:41:17;8.10;57.20
8463;DHT22;4268;52.506;13.462;2023-03-01T13:44:01;8.10;57.00
8463;DHT22;4268;52.506;13.462;2023-03-01T13:46:36;8.00;57.90
8463;DHT22;4268;52.506;13.462;2023-03-01T13:49:02;7.90;58.60
8463;DHT22;4268;52.506;13.462;2023-03-01T13:51:28;8.00;59.40
8463;DHT22;4268;52.506;13.462;2023-03-01T13:53:55;7.90;60.10
8463;DHT22;4268;52.506;13.462;2023-03-01T13:56:25;8.00;59.10
8463;DHT22;4268;52.506;13.462;2023-03-01T13:59:01;8.00;57.60
8463;DHT22;4268;52.506;13.462;2023-03-01T14:01:33;8.00;56.50
8463;DHT22;4268;52.506;13.462;2023-03-01T14:03:59;8.10;56.40
8463;DHT22;4268;52.506;13.462;2023-03-01T14:06:28;8.10;56.60
8463;DHT22;4268;52.506;13.462;2023-03-01T14:09:15;8.10;56.30
8463;DHT22;4268;52.506;13.462;2023-03-01T14:19:30;8.10;58.40
8463;DHT22;4268;52.506;13.462;2023-03-01T14:22:13;8.10;58.60
8463;DHT22;4268;52.506;13.462;2023-03-01T14:24:56;8.10;58.60
8463;DHT22;4268;52.506;13.462;2023-03-01T14:27:27;8.10;58.70
8463;DHT22;4268;52.506;13.462;2023-03-01T14:30:02;8.00;59.30
8463;DHT22;4268;52.506;13.462;2023-03-01T14:32:30;8.10;59.80
8463;DHT22;4268;52.506;13.462;2023-03-01T14:34:57;8.00;59.80
8463;DHT22;4268;52.506;13.462;2023-03-01T14:37:31;8.10;60.20
8463;DHT22;4268;52.506;13.462;2023-03-01T14:39:59;8.20;60.90
8463;DHT22;4268;52.506;13.462;2023-03-01T14:42:28;8.20;61.30
8463;DHT22;4268;52.506;13.462;2023-03-01T14:44:55;8.10;61.60
8463;DHT22;4268;52.506;13.462;2023-03-01T14:47:28;8.10;62.90
8463;DHT22;4268;52.506;13.462;2023-03-01T14:50:21;8.10;62.50
8463;DHT22;4268;52.506;13.462;2023-03-01T14:52:49;8.10;63.00
8463;DHT22;4268;52.506;13.462;2023-03-01T14:55:21;8.10;63.80
8463;DHT22;4268;52.506;13.462;2023-03-01T14:57:50;8.20;64.30
8463;DHT22;4268;52.506;13.462;2023-03-01T15:00:25;8.20;63.90
8463;DHT22;4268;52.506;13.462;2023-03-01T15:02:53;8.20;64.60
8463;DHT22;4268;52.506;13.462;2023-03-01T15:05:31;8.10;64.70
8463;DHT22;4268;52.506;13.462;2023-03-01T15:07:58;8.10;65.90
8463;DHT22;4268;52.506;13.462;2023-03-01T15:10:31;8.10;66.50
8463;DHT22;4268;52.506;13.462;2023-03-01T15:13:13;8.00;66.90
8463;DHT22;4268;52.506;13.462;2023-03-01T15:15:47;7.90;67.40
8463;DHT22;4268;52.506;13.462;2023-03-01T15:18:21;7.80;67.80
8463;DHT22;4268;52.506;13.462;2023-03-01T15:20:48;7.90;68.60
8463;DHT22;4268;52.506;13.462;2023-03-01T15:23:26;7.80;68.80
8463;DHT22;4268;52.506;13.462;2023-03-01T15:25:53;7.80;68.30
8463;DHT22;4268;52.506;13.462;2023-03-01T15:28:31;7.90;68.50
8463;DHT22;4268;52.506;13.462;2023-03-01T15:33:38;7.80;67.90
8463;DHT22;4268;52.506;13.462;2023-03-01T15:36:33;7.10;68.00
8463;DHT22;4268;52.506;13.462;2023-03-01T15:39:02;7.60;68.30
8463;DHT22;4268;52.506;13.462;2023-03-01T15:41:45;7.60;68.00
8463;DHT22;4268;52.506;13.462;2023-03-01T15:44:17;7.50;68.60
8463;DHT22;4268;52.506;13.462;2023-03-01T15:46:47;7.50;68.70
8463;DHT22;4268;52.506;13.462;2023-03-01T15:49:52;7.50;69.10
8463;DHT22;4268;52.506;13.462;2023-03-01T15:52:39;7.40;70.20
8463;DHT22;4268;52.506;13.462;2023-03-01T15:55:20;7.30;70.50
8463;DHT22;4268;52.506;13.462;2023-03-01T15:57:46;7.40;70.50
8463;DHT22;4268;52.506;13.462;2023-03-01T16:00:13;7.50;70.20
8463;DHT22;4268;52.506;13.462;2023-03-01T16:02:40;7.50;70.40
8463;DHT22;4268;52.506;13.462;2023-03-01T16:05:27;7.40;70.80
8463;DHT22;4268;52.506;13.462;2023-03-01T16:07:53;7.30;71.00
8463;DHT22;4268;52.506;13.462;2023-03-01T16:10:19;7.20;71.30
8463;DHT22;4268;52.506;13.462;2023-03-01T16:12:45;7.10;71.60
8463;DHT22;4268;52.506;13.462;2023-03-01T16:15:19;7.10;71.80
8463;DHT22;4268;52.506;13.462;2023-03-01T16:17:45;7.00;72.40
8463;DHT22;4268;52.506;13.462;2023-03-01T16:20:11;7.00;72.60
8463;DHT22;4268;52.506;13.462;2023-03-01T16:22:36;7.00;72.70
8463;DHT22;4268;52.506;13.462;2023-03-01T16:25:02;7.00;72.80
8463;DHT22;4268;52.506;13.462;2023-03-01T16:27:28;7.00;73.00
8463;DHT22;4268;52.506;13.462;2023-03-01T16:29:53;7.00;73.30
8463;DHT22;4268;52.506;13.462;2023-03-01T16:32:19;6.90;73.30
8463;DHT22;4268;52.506;13.462;2023-03-01T16:34:45;6.80;73.80
8463;DHT22;4268;52.506;13.462;2023-03-01T16:37:12;6.70;74.10
8463;DHT22;4268;52.506;13.462;2023-03-01T16:39:38;6.50;74.40
8463;DHT22;4268;52.506;13.462;2023-03-01T16:42:04;6.50;74.80
8463;DHT22;4268;52.506;13.462;2023-03-01T16:44:29;6.40;75.50
8463;DHT22;4268;52.506;13.462;2023-03-01T16:46:55;6.30;75.90
8463;DHT22;4268;52.506;13.462;2023-03-01T16:49:21;6.30;76.50
8463;DHT22;4268;52.506;13.462;2023-03-01T16:51:46;6.20;76.80
8463;DHT22;4268;52.506;13.462;2023-03-01T16:54:12;6.10;77.50
8463;DHT22;4268;52.506;13.462;2023-03-01T16:56:37;6.10;77.60
8463;DHT22;4268;52.506;13.462;2023-03-01T16:59:05;6.00;77.80
8463;DHT22;4268;52.506;13.462;2023-03-01T17:01:30;6.00;78.60
8463;DHT22;4268;52.506;13.462;2023-03-01T17:04:03;5.90;78.90
8463;DHT22;4268;52.506;13.462;2023-03-01T17:06:28;5.90;79.20
8463;DHT22;4268;52.506;13.462;2023-03-01T17:08:54;5.90;79.70
8463;DHT22;4268;52.506;13.462;2023-03-01T17:11:20;6.00;80.00
8463;DHT22;4268;52.506;13.462;2023-03-01T17:13:46;5.90;79.80
8463;DHT22;4268;52.506;13.462;2023-03-01T17:16:15;5.90;80.50
8463;DHT22;4268;52.506;13.462;2023-03-01T17:18:42;5.80;80.60
8463;DHT22;4268;52.506;13.462;2023-03-01T17:21:08;5.80;80.90
8463;DHT22;4268;52.506;13.462;2023-03-01T17:23:36;5.80;81.30
8463;DHT22;4268;52.506;13.462;2023-03-01T17:26:02;5.70;81.40
8463;DHT22;4268;52.506;13.462;2023-03-01T17:28:30;5.70;82.00
8463;DHT22;4268;52.506;13.462;2023-03-01T17:30:57;5.60;82.20
8463;DHT22;4268;52.506;13.462;2023-03-01T17:33:23;5.60;82.30
8463;DHT22;4268;52.506;13.462;2023-03-01T17:35:49;5.60;82.90
8463;DHT22;4268;52.506;13.462;2023-03-01T17:38:15;5.60;83.40